Time;durP1;ratioP1;P1;durP2;ratioP2;P2;SDS_P1;SDS_P2;PMS_P1;PMS_P2;Temp;Humidity;BMP_temperature;BMP_pressure;BME280_temperature;BME280_humidity;BME280_pressure;Samples;Min_cycle;Max_cycle;Signal;HPM_P1;HPM_P2
2022/03/23 00:01:22;;;;;;;27.02;19.30;;;;;;;3.32;55.52;102332.44;4986233;28;20026;-87
2022/03/23 00:03:47;;;;;;;25.48;19.80;;;;;;;3.29;55.22;102341.81;4998063;28;20098;-87
2022/03/23 00:06:13;;;;;;;25.73;20.17;;;;;;;3.24;55.62;102332.88;5001617;28;20032;-87
2022/03/23 00:08:39;;;;;;;32.25;20.75;;;;;;;3.21;55.99;102339.72;5003599;28;20117;-87
2022/03/23 00:11:04;;;;;;;32.38;20.98;;;;;;;3.18;55.58;102329.16;5001482;28;20041;-87
2022/03/23 00:13:30;;;;;;;25.77;20.92;;;;;;;3.08;55.51;102326.94;5001119;28;20757;-87
2022/03/23 00:15:55;;;;;;;29.08;20.40;;;;;;;3.01;55.99;102324.84;4984737;28;20435;-87
2022/03/23 00:18:21;;;;;;;29.73;19.02;;;;;;;2.92;55.62;102305.31;5002557;28;20026;-87
2022/03/23 00:20:46;;;;;;;33.13;20.92;;;;;;;3.01;56.09;102324.84;4998149;28;20629;-87
2022/03/23 00:23:12;;;;;;;30.25;21.63;;;;;;;2.94;56.03;102313.22;4985698;28;20029;-87
2022/03/23 00:25:38;;;;;;;30.20;20.30;;;;;;;2.96;55.69;102322.00;4984034;28;20018;-87
2022/03/23 00:28:04;;;;;;;35.35;22.75;;;;;;;2.92;55.87;102328.78;5001319;28;20033;-87
2022/03/23 00:30:31;;;;;;;32.45;21.25;;;;;;;2.84;55.84;102317.09;4983797;28;20053;-87
2022/03/23 00:32:57;;;;;;;37.80;22.75;;;;;;;2.87;55.99;102327.66;4986207;28;20034;-87
2022/03/23 00:35:22;;;;;;;32.15;20.88;;;;;;;2.83;56.07;102315.28;5001380;28;20037;-87
2022/03/23 00:37:48;;;;;;;33.80;21.65;;;;;;;2.73;55.98;102310.47;4985395;28;20026;-87
2022/03/23 00:40:13;;;;;;;32.92;20.88;;;;;;;2.78;55.89;102317.69;5000728;28;20050;-87
2022/03/23 00:42:39;;;;;;;29.73;21.98;;;;;;;2.69;55.94;102306.78;5001648;28;20445;-87
2022/03/23 00:45:06;;;;;;;32.80;21.10;;;;;;;2.70;56.32;102321.59;4984469;28;20112;-87
2022/03/23 00:47:31;;;;;;;33.45;21.55;;;;;;;2.61;56.19;102314.22;4983953;28;20023;-87
2022/03/23 00:49:57;;;;;;;27.90;20.27;;;;;;;2.62;56.64;102320.31;4984358;28;20038;-87
2022/03/23 00:52:22;;;;;;;28.38;20.35;;;;;;;2.48;56.00;102306.59;4985302;28;20030;-86
2022/03/23 00:54:47;;;;;;;27.65;19.63;;;;;;;2.54;56.07;102320.81;4983635;28;20026;-87
2022/03/23 00:57:13;;;;;;;29.80;20.77;;;;;;;2.53;56.34;102315.53;5001104;28;20022;-86
2022/03/23 00:59:38;;;;;;;30.00;19.08;;;;;;;2.52;56.17;102329.38;4998792;28;20042;-87
2022/03/23 01:02:05;;;;;;;31.88;20.90;;;;;;;2.38;56.01;102306.16;4997913;28;20026;-86
2022/03/23 01:04:31;;;;;;;29.10;20.30;;;;;;;2.33;56.29;102293.72;4983437;28;20015;-85
2022/03/23 01:06:57;;;;;;;26.40;19.58;;;;;;;2.36;56.42;102312.97;4983948;28;20026;-86
2022/03/23 01:09:23;;;;;;;28.77;19.63;;;;;;;2.31;56.36;102314.47;4984287;28;20113;-86
2022/03/23 01:11:53;;;;;;;31.95;20.25;;;;;;;2.22;56.61;102300.94;4998738;28;20077;-87
2022/03/23 01:14:19;;;;;;;27.88;19.17;;;;;;;2.20;56.37;102298.25;4986506;28;20033;-87
2022/03/23 01:16:45;;;;;;;26.98;19.95;;;;;;;2.29;56.27;102314.38;5000925;28;20034;-87
2022/03/23 01:19:11;;;;;;;27.52;19.88;;;;;;;2.25;56.47;102309.81;4984300;28;20021;-87
2022/03/23 01:21:37;;;;;;;25.73;19.10;;;;;;;2.22;56.48;102313.97;5000757;28;20105;-86
2022/03/23 01:24:02;;;;;;;31.73;20.95;;;;;;;2.17;56.40;102309.41;5002486;28;20116;-87
2022/03/23 01:26:28;;;;;;;30.08;20.05;;;;;;;2.15;56.33;102311.06;5000858;28;20018;-87
2022/03/23 01:28:53;;;;;;;29.67;20.73;;;;;;;2.12;56.56;102321.31;4985162;28;20054;-86
2022/03/23 01:31:18;;;;;;;29.70;20.45;;;;;;;2.08;56.48;102306.34;4999601;28;20029;-86
2022/03/23 01:33:44;;;;;;;28.90;20.75;;;;;;;2.05;56.38;102316.59;4983233;28;20030;-87
2022/03/23 01:36:10;;;;;;;31.70;20.40;;;;;;;2.03;56.72;102316.50;4984613;28;20035;-87
2022/03/23 01:38:36;;;;;;;27.27;18.98;;;;;;;1.94;56.58;102307.31;4984758;28;20030;-88
2022/03/23 01:41:01;;;;;;;27.63;18.85;;;;;;;1.97;56.62;102316.16;5000345;28;20108;-87
2022/03/23 01:43:26;;;;;;;28.80;20.00;;;;;;;1.87;56.65;102303.50;4984761;28;20147;-88
2022/03/23 01:45:53;;;;;;;29.63;20.33;;;;;;;1.91;56.38;102314.13;4999251;28;20437;-87
2022/03/23 01:48:18;;;;;;;25.40;18.52;;;;;;;1.89;56.57;102315.78;4981997;28;20034;-87
2022/03/23 01:50:44;;;;;;;27.30;19.67;;;;;;;1.84;56.30;102306.84;4983120;28;20112;-88
2022/03/23 01:53:09;;;;;;;31.55;21.02;;;;;;;1.79;56.48;102303.09;4985084;28;20098;-88
2022/03/23 01:55:35;;;;;;;29.83;20.00;;;;;;;1.72;56.58;102301.88;4984144;28;20036;-88
2022/03/23 01:58:00;;;;;;;26.95;19.80;;;;;;;1.75;56.33;102306.34;4983951;28;20054;-87
2022/03/23 02:00:28;;;;;;;27.88;20.45;;;;;;;1.70;56.55;102302.59;5000539;28;20022;-87
2022/03/23 02:02:53;;;;;;;29.75;19.98;;;;;;;1.64;56.53;102288.44;4983617;28;20246;-87
2022/03/23 02:05:19;;;;;;;27.95;20.35;;;;;;;1.66;56.65;102292.03;4984907;28;20030;-87
2022/03/23 02:07:47;;;;;;;28.90;19.85;;;;;;;1.60;56.33;102296.88;4984105;28;20041;-87
2022/03/23 02:10:13;;;;;;;33.88;20.33;;;;;;;1.57;56.54;102295.84;5001249;28;20022;-87
2022/03/23 02:12:38;;;;;;;29.08;20.02;;;;;;;1.46;56.74;102279.66;4984840;28;20045;-86
2022/03/23 02:15:12;;;;;;;26.75;19.02;;;;;;;1.53;56.68;102294.75;4985330;28;20026;-87
2022/03/23 02:17:38;;;;;;;29.52;18.90;;;;;;;1.47;56.25;102292.72;5001487;28;20022;-86
2022/03/23 02:20:04;;;;;;;25.00;18.83;;;;;;;1.47;56.66;102302.25;4985005;28;20038;-86
2022/03/23 02:22:29;;;;;;;30.13;19.05;;;;;;;1.42;56.69;102299.38;4983470;28;20034;-87
2022/03/23 02:24:55;;;;;;;34.15;21.58;;;;;;;1.40;56.49;102290.63;4985430;28;20026;-87
2022/03/23 02:27:20;;;;;;;31.52;20.88;;;;;;;1.31;56.97;102287.50;4984606;28;20022;-87
2022/03/23 02:29:46;;;;;;;28.85;19.60;;;;;;;1.30;56.64;102286.59;5001904;28;20026;-87
2022/03/23 02:32:13;;;;;;;31.25;20.73;;;;;;;1.28;56.78;102296.94;5000874;28;20037;-87
2022/03/23 02:34:38;;;;;;;27.10;19.58;;;;;;;1.21;56.94;102275.72;5001440;28;20058;-86
2022/03/23 02:37:04;;;;;;;29.83;19.35;;;;;;;1.20;57.16;102279.13;4984735;28;20057;-86
2022/03/23 02:39:30;;;;;;;31.10;20.98;;;;;;;1.12;56.88;102269.19;4986466;28;20030;-86
2022/03/23 02:41:56;;;;;;;32.65;20.45;;;;;;;1.18;57.41;102285.94;4998582;28;20037;-86
2022/03/23 02:44:23;;;;;;;32.22;20.65;;;;;;;1.17;57.25;102292.84;4999965;28;20033;-86
2022/03/23 02:46:48;;;;;;;28.05;19.33;;;;;;;1.14;57.14;102293.53;4984574;28;20062;-86
2022/03/23 02:49:18;;;;;;;30.75;21.25;;;;;;;1.11;57.36;102293.41;4984756;28;20069;-87
2022/03/23 02:51:43;;;;;;;32.53;20.73;;;;;;;1.03;57.45;102286.84;4983818;28;20461;-86
2022/03/23 03:02:59;;;;;;;25.75;18.23;;;;;;;0.95;57.87;102294.22;5001104;28;20029;-86
2022/03/23 03:05:25;;;;;;;26.75;18.77;;;;;;;0.91;57.59;102297.47;4985163;28;20031;-87
2022/03/23 03:10:34;;;;;;;26.85;18.52;;;;;;;0.87;58.05;102300.69;5000836;28;20098;-86
2022/03/23 03:13:00;;;;;;;24.52;17.92;;;;;;;0.81;57.53;102288.25;5000350;28;20046;-85
2022/03/23 03:15:25;;;;;;;29.08;20.08;;;;;;;0.83;57.57;102293.53;4983569;28;20033;-86
2022/03/23 03:17:51;;;;;;;26.38;18.58;;;;;;;0.81;57.57;102292.53;5001320;28;20042;-86
2022/03/23 03:20:16;;;;;;;27.27;17.88;;;;;;;0.75;57.83;102291.41;4984071;28;20676;-87
2022/03/23 03:22:43;;;;;;;28.83;18.58;;;;;;;0.70;57.73;102286.75;4983435;28;20033;-86
2022/03/23 03:25:11;;;;;;;27.52;18.38;;;;;;;0.72;57.26;102293.81;4984242;28;20031;-86
2022/03/23 03:27:37;;;;;;;26.83;18.15;;;;;;;0.69;57.67;102297.91;4999792;28;20027;-87
2022/03/23 03:30:04;;;;;;;26.85;18.27;;;;;;;0.64;57.55;102298.53;5002355;28;20018;-86
2022/03/23 03:32:30;;;;;;;26.73;17.83;;;;;;;0.58;57.46;102295.63;4999375;28;20026;-86
2022/03/23 03:34:55;;;;;;;26.83;17.88;;;;;;;0.57;57.55;102286.00;4984931;28;20026;-86
2022/03/23 03:37:21;;;;;;;27.58;18.60;;;;;;;0.58;57.83;102302.50;5002086;28;20038;-86
2022/03/23 03:39:46;;;;;;;27.10;18.38;;;;;;;0.52;58.13;102297.84;4983400;28;20058;-86
2022/03/23 03:42:13;;;;;;;28.80;18.77;;;;;;;0.51;57.88;102296.06;4982397;28;20026;-86
2022/03/23 03:44:38;;;;;;;30.55;19.45;;;;;;;0.40;57.82;102286.75;5001553;28;20019;-86
2022/03/23 03:47:04;;;;;;;27.85;18.80;;;;;;;0.48;58.17;102306.25;4985628;28;20029;-86
2022/03/23 03:49:30;;;;;;;29.60;19.13;;;;;;;0.48;57.86;102306.25;4984351;28;20114;-86
2022/03/23 03:51:55;;;;;;;30.75;19.50;;;;;;;0.36;58.11;102296.94;5000308;28;20038;-86
2022/03/23 03:54:20;;;;;;;26.10;19.15;;;;;;;0.43;57.82;102310.28;4999438;28;20030;-86
2022/03/23 03:56:46;;;;;;;28.80;18.98;;;;;;;0.40;57.98;102312.69;4999513;28;20038;-87
2022/03/23 03:59:11;;;;;;;27.60;17.85;;;;;;;0.40;57.93;102302.31;5000659;28;20041;-85
2022/03/23 04:01:40;;;;;;;25.63;18.35;;;;;;;0.37;58.09;102303.91;4982828;28;20022;-86
2022/03/23 04:04:11;;;;;;;25.65;18.73;;;;;;;0.32;58.00;102294.97;4981449;28;20015;-85
2022/03/23 04:06:36;;;;;;;;;;;;;;;0.33;58.31;102301.94;5003117;28;20030;-86
2022/03/23 04:09:02;;;;;;;30.23;19.48;;;;;;;0.31;58.39;102303.56;5002515;28;19940;-87
2022/03/23 04:11:29;;;;;;;26.83;17.98;;;;;;;0.29;57.68;102309.44;5004697;28;20034;-86
2022/03/23 04:13:54;;;;;;;29.27;18.08;;;;;;;0.25;58.45;102304.09;4986484;28;20037;-86
2022/03/23 04:16:20;;;;;;;29.70;18.67;;;;;;;0.26;57.73;102304.97;4986269;28;20034;-85
2022/03/23 04:18:45;;;;;;;29.95;19.15;;;;;;;0.24;57.89;102311.78;4986305;28;20045;-86
2022/03/23 04:21:11;;;;;;;27.88;18.73;;;;;;;0.22;57.91;102313.38;4999989;28;20030;-86
2022/03/23 04:23:36;;;;;;;27.02;18.80;;;;;;;0.19;58.28;102310.59;4986872;28;20022;-86
2022/03/23 04:26:02;;;;;;;30.33;18.55;;;;;;;0.18;57.90;102316.59;4985064;28;20031;-86
2022/03/23 04:28:27;;;;;;;27.70;18.52;;;;;;;0.13;58.21;102318.91;4984467;28;20033;-86
2022/03/23 04:30:53;;;;;;;27.83;18.33;;;;;;;0.08;58.47;102308.28;4984762;28;20588;-86
2022/03/23 04:33:18;;;;;;;30.27;19.20;;;;;;;-0.03;58.00;102294.63;5002323;28;20029;-86
2022/03/23 04:35:44;;;;;;;28.88;18.38;;;;;;;0.00;58.07;102306.91;4986669;28;20105;-86
2022/03/23 04:38:09;;;;;;;28.55;18.77;;;;;;;0.03;58.22;102308.78;4984984;28;20062;-86
2022/03/23 04:40:34;;;;;;;25.63;17.67;;;;;;;0.07;58.31;102323.75;5001295;28;20026;-86
2022/03/23 04:43:00;;;;;;;27.83;19.13;;;;;;;0.04;58.65;102329.66;5001336;28;20030;-87
2022/03/23 04:45:25;;;;;;;25.42;19.38;;;;;;;0.02;58.44;102326.06;4987298;28;20054;-87
2022/03/23 04:47:51;;;;;;;26.05;17.15;;;;;;;-0.09;57.81;102306.34;4986061;28;20030;-87
2022/03/23 04:50:17;;;;;;;30.08;18.83;;;;;;;-0.04;57.99;102320.47;4986052;28;20030;-86
2022/03/23 04:52:44;;;;;;;27.60;17.52;;;;;;;-0.07;57.93;102320.31;4983939;28;20037;-87
2022/03/23 04:55:11;;;;;;;26.05;18.30;;;;;;;-0.13;58.46;102311.34;5000802;28;20050;-87
2022/03/23 04:57:37;;;;;;;27.17;18.02;;;;;;;-0.13;58.62;102316.53;5006175;28;20010;-88
2022/03/23 05:00:05;;;;;;;28.50;18.63;;;;;;;-0.13;58.14;102316.53;4991428;28;20084;-88
2022/03/23 05:02:30;;;;;;;26.30;18.02;;;;;;;-0.17;58.44;102319.72;4990674;28;20019;-88
2022/03/23 05:04:56;;;;;;;26.45;17.13;;;;;;;-0.16;58.61;102318.91;5008581;28;20069;-88
2022/03/23 05:07:21;;;;;;;25.45;17.38;;;;;;;-0.24;58.35;102307.19;5009890;28;20057;-87
2022/03/23 05:09:47;;;;;;;25.05;17.50;;;;;;;-0.22;58.56;102309.88;4993570;28;20026;-88
2022/03/23 05:12:12;;;;;;;26.35;19.00;;;;;;;-0.32;58.76;102305.81;4992285;28;20495;-87
2022/03/23 05:14:38;;;;;;;24.85;18.35;;;;;;;-0.27;58.72;102315.69;4991860;28;20030;-88
2022/03/23 05:17:04;;;;;;;25.00;17.45;;;;;;;-0.35;58.02;102308.22;5010171;28;20052;-87
2022/03/23 05:19:31;;;;;;;29.40;18.80;;;;;;;-0.38;58.44;102306.34;4992400;28;20022;-88
2022/03/23 05:21:57;;;;;;;24.70;16.75;;;;;;;-0.41;58.64;102304.44;4992764;28;20030;-88
2022/03/23 05:24:23;;;;;;;29.90;19.83;;;;;;;-0.33;58.30;102327.38;4991645;28;20022;-88
2022/03/23 05:26:48;;;;;;;27.42;17.98;;;;;;;-0.40;58.22;102320.91;4992417;28;20118;-88
2022/03/23 05:29:16;;;;;;;25.60;17.08;;;;;;;-0.35;58.34;102316.91;4992430;28;20049;-87
2022/03/23 05:31:42;;;;;;;27.50;17.42;;;;;;;-0.37;58.12;102317.59;4991936;28;20488;-88
2022/03/23 05:34:07;;;;;;;27.23;18.50;;;;;;;-0.42;58.84;102323.41;4992721;28;20032;-88
2022/03/23 05:36:33;;;;;;;30.05;17.88;;;;;;;-0.37;58.40;102327.97;4987933;28;20026;-87
2022/03/23 05:38:58;;;;;;;26.13;18.50;;;;;;;-0.38;58.24;102329.66;4989961;28;20034;-88
2022/03/23 05:41:25;;;;;;;29.05;18.52;;;;;;;-0.46;58.17;102316.25;4987853;28;20050;-88
2022/03/23 05:43:50;;;;;;;27.95;18.40;;;;;;;-0.52;58.26;102310.66;5003673;28;20042;-88
2022/03/23 05:46:16;;;;;;;31.45;19.00;;;;;;;-0.43;58.29;102328.50;5002557;28;20034;-87
2022/03/23 05:48:43;;;;;;;24.08;16.92;;;;;;;-0.52;58.41;102321.03;4986071;28;20037;-88
2022/03/23 05:51:08;;;;;;;28.42;18.20;;;;;;;-0.48;58.76;102328.19;4988513;28;20045;-88
2022/03/23 05:53:36;;;;;;;27.48;17.73;;;;;;;-0.45;58.61;102338.75;4990624;28;20030;-88
2022/03/23 05:56:04;;;;;;;29.25;18.85;;;;;;;-0.45;58.64;102335.25;4987230;28;20049;-87
2022/03/23 05:58:30;;;;;;;26.23;18.05;;;;;;;-0.58;59.03;102312.84;5002957;28;20045;-86
2022/03/23 06:00:56;;;;;;;26.33;18.13;;;;;;;-0.47;58.86;102335.16;4987039;28;20420;-88
2022/03/23 06:03:21;;;;;;;27.77;18.63;;;;;;;-0.49;58.79;102335.88;4986160;28;20022;-87
2022/03/23 06:05:47;;;;;;;26.50;18.40;;;;;;;-0.54;58.80;102322.59;4987543;28;20089;-88
2022/03/23 06:08:12;;;;;;;26.73;17.52;;;;;;;-0.48;58.90;102335.97;4989363;28;20030;-85
2022/03/23 06:10:38;;;;;;;29.33;17.67;;;;;;;-0.53;58.45;102327.03;5003844;28;20037;-88
2022/03/23 06:13:04;;;;;;;26.17;18.00;;;;;;;-0.53;58.94;102334.78;5002165;28;20046;-87
2022/03/23 06:15:29;;;;;;;27.35;18.17;;;;;;;-0.54;58.59;102333.88;4987359;28;20038;-87
2022/03/23 06:17:55;;;;;;;26.83;18.30;;;;;;;-0.51;58.42;102328.00;5004203;28;20030;-87
2022/03/23 06:20:20;;;;;;;29.75;18.77;;;;;;;-0.48;58.94;102338.56;5003211;28;20044;-88
2022/03/23 06:22:45;;;;;;;27.48;18.92;;;;;;;-0.45;58.85;102338.75;5001576;28;20033;-87
2022/03/23 06:25:11;;;;;;;29.38;18.38;;;;;;;-0.44;58.71;102350.00;4984044;28;20034;-88
2022/03/23 06:27:36;;;;;;;26.73;19.02;;;;;;;-0.43;58.90;102346.66;4984091;28;20037;-88
2022/03/23 06:30:05;;;;;;;27.17;18.75;;;;;;;-0.43;58.67;102347.53;4985054;28;20018;-88
2022/03/23 06:32:31;;;;;;;28.90;17.63;;;;;;;-0.42;58.28;102356.19;4986587;28;20031;-88
2022/03/23 06:34:56;;;;;;;28.88;18.58;;;;;;;-0.42;58.65;102344.16;5001952;28;20404;-87
2022/03/23 06:37:22;;;;;;;31.60;19.00;;;;;;;-0.41;58.87;102355.41;4999919;28;20053;-88
2022/03/23 06:39:48;;;;;;;31.45;19.13;;;;;;;-0.37;59.06;102354.78;5002220;28;20046;-87
2022/03/23 06:42:14;;;;;;;31.15;18.63;;;;;;;-0.35;59.11;102360.97;5000916;28;20030;-88
2022/03/23 06:44:40;;;;;;;27.50;19.45;;;;;;;-0.34;58.99;102359.28;4989126;28;20033;-88
2022/03/23 06:47:05;;;;;;;28.92;18.73;;;;;;;-0.32;58.98;102361.19;5002477;28;20030;-87
2022/03/23 06:49:31;;;;;;;33.38;19.33;;;;;;;-0.31;59.25;102352.59;5002698;28;20041;-88
2022/03/23 06:51:56;;;;;;;32.13;20.33;;;;;;;-0.29;58.71;102356.19;5000431;28;20069;-88
2022/03/23 06:54:22;;;;;;;30.30;18.90;;;;;;;-0.30;58.50;102348.31;5002311;28;20424;-88
2022/03/23 06:56:51;;;;;;;31.63;19.85;;;;;;;-0.20;58.38;102357.56;4984271;28;20030;-88
2022/03/23 06:59:17;;;;;;;27.33;18.85;;;;;;;-0.16;58.57;102363.00;4985000;28;20046;-88
2022/03/23 07:01:43;;;;;;;27.02;18.67;;;;;;;-0.18;59.14;102350.75;5000760;28;20034;-88
2022/03/23 07:04:08;;;;;;;29.63;19.95;;;;;;;-0.19;58.73;102342.09;5002890;28;20045;-88
2022/03/23 07:06:34;;;;;;;27.95;19.65;;;;;;;-0.13;58.93;102352.84;5002349;28;20097;-87
2022/03/23 07:11:43;;;;;;;29.08;19.30;;;;;;;0.01;59.39;102355.41;4998830;28;20045;-88
2022/03/23 07:14:08;;;;;;;29.33;19.27;;;;;;;0.11;59.32;102362.06;4996630;28;20377;-88
2022/03/23 07:16:34;;;;;;;26.92;19.85;;;;;;;0.10;58.83;102348.16;4984482;28;20022;-88
2022/03/23 07:18:59;;;;;;;29.63;18.80;;;;;;;0.15;59.29;102353.66;5016199;28;20030;-88
2022/03/23 07:21:25;;;;;;;29.10;20.10;;;;;;;0.21;59.11;102351.44;4983049;28;20022;-88
2022/03/23 07:23:50;;;;;;;27.15;18.92;;;;;;;0.29;58.62;102349.28;4983586;28;20053;-88
2022/03/23 07:26:16;;;;;;;30.73;20.63;;;;;;;0.37;59.13;102353.22;4998597;28;20093;-88
2022/03/23 07:28:42;;;;;;;29.95;20.40;;;;;;;0.52;59.05;102367.94;4983032;28;20111;-88
2022/03/23 07:31:08;;;;;;;31.27;20.77;;;;;;;0.51;59.25;102350.59;4998366;28;20034;-87
2022/03/23 07:33:34;;;;;;;31.10;19.80;;;;;;;0.63;59.45;102358.19;4999463;28;20413;-88
2022/03/23 07:35:59;;;;;;;31.75;20.88;;;;;;;0.74;59.46;102366.63;4996201;28;20026;-88
2022/03/23 07:38:25;;;;;;;28.63;20.15;;;;;;;0.80;59.36;102346.19;4999771;28;20031;-88
2022/03/23 07:40:50;;;;;;;31.52;20.25;;;;;;;0.85;58.82;102349.97;4984860;28;20035;-88
2022/03/23 07:43:15;;;;;;;29.30;20.17;;;;;;;1.03;59.21;102367.41;5001468;28;20113;-88
2022/03/23 07:45:41;;;;;;;27.75;19.52;;;;;;;1.14;58.98;102374.13;5003645;28;20157;-88
2022/03/23 07:48:06;;;;;;;27.45;19.52;;;;;;;1.13;58.60;102350.63;5000408;28;20033;-88
2022/03/23 07:50:35;;;;;;;27.08;20.02;;;;;;;1.26;58.62;102362.63;4986207;28;20030;-88
2022/03/23 07:53:00;;;;;;;30.10;20.00;;;;;;;1.37;58.92;102361.53;5000565;28;20099;-87
2022/03/23 07:55:25;;;;;;;31.17;20.15;;;;;;;1.42;58.70;102354.00;5003905;28;20131;-88
2022/03/23 07:57:51;;;;;;;30.48;21.23;;;;;;;1.61;58.74;102374.13;5003111;28;20030;-88
2022/03/23 08:00:17;;;;;;;31.90;19.85;;;;;;;1.66;58.39;102357.06;5002667;28;20447;-88
2022/03/23 08:02:42;;;;;;;30.88;20.70;;;;;;;1.72;58.10;102347.78;4983415;28;20098;-87
2022/03/23 08:05:09;;;;;;;32.55;21.23;;;;;;;1.92;57.89;102370.59;4983949;28;20058;-88
2022/03/23 08:07:35;;;;;;;31.75;20.80;;;;;;;2.05;58.83;102368.66;4988387;28;20038;-88
2022/03/23 08:10:00;;;;;;;31.45;19.90;;;;;;;2.18;58.00;102370.19;4986883;28;20110;-88
2022/03/23 08:12:26;;;;;;;30.90;20.65;;;;;;;2.29;58.00;102369.06;5002180;28;20033;-88
2022/03/23 08:14:51;;;;;;;31.17;21.17;;;;;;;2.37;58.25;102363.34;5016037;28;20050;-88
2022/03/23 08:17:17;;;;;;;32.97;21.15;;;;;;;2.54;57.72;102364.22;4999294;28;20039;-88
2022/03/23 08:19:43;;;;;;;27.85;20.88;;;;;;;2.65;57.88;102362.16;4986529;28;20030;-88
2022/03/23 08:22:09;;;;;;;30.02;20.55;;;;;;;2.79;58.59;102365.47;4986603;28;20535;-88
2022/03/23 08:24:34;;;;;;;30.52;20.90;;;;;;;2.92;57.85;102360.06;5021029;28;20028;-88
2022/03/23 08:27:00;;;;;;;31.67;21.45;;;;;;;3.07;58.18;102356.44;4985943;28;20034;-88
2022/03/23 08:29:25;;;;;;;27.70;20.73;;;;;;;3.15;58.65;102355.09;4985311;28;20026;-88
2022/03/23 08:31:51;;;;;;;30.05;21.23;;;;;;;3.39;58.76;102353.56;4986400;28;20049;-88
2022/03/23 08:34:18;;;;;;;33.67;21.17;;;;;;;3.54;58.04;102350.81;4986716;28;20045;-88
2022/03/23 08:36:44;;;;;;;30.83;21.15;;;;;;;3.62;58.71;102346.84;5019193;28;20034;-89
2022/03/23 08:39:10;;;;;;;32.55;19.85;;;;;;;3.74;58.43;102345.63;5002366;28;20026;-88
2022/03/23 08:41:35;;;;;;;29.45;20.95;;;;;;;3.97;58.77;102357.13;4998072;28;20586;-87
2022/03/23 08:44:01;;;;;;;30.00;20.58;;;;;;;4.17;59.14;102357.13;4987943;28;20041;-88
2022/03/23 08:46:27;;;;;;;29.63;20.85;;;;;;;4.33;58.30;102348.22;5002653;28;20504;-89
2022/03/23 08:48:52;;;;;;;31.02;21.20;;;;;;;4.43;58.47;102345.19;4985872;28;20018;-88
2022/03/23 08:51:19;;;;;;;28.98;20.90;;;;;;;4.63;57.74;102350.38;4982630;28;20042;-85
2022/03/23 08:53:45;;;;;;;29.70;20.35;;;;;;;4.78;57.89;102346.66;4998185;28;20037;-88
2022/03/23 08:56:13;;;;;;;26.83;20.70;;;;;;;4.96;57.62;102344.78;4999086;28;20129;-88
2022/03/23 08:58:39;;;;;;;27.50;19.48;;;;;;;5.17;57.36;102354.34;4999672;28;20023;-89
2022/03/23 09:01:05;;;;;;;26.80;19.42;;;;;;;5.33;57.54;102355.84;4986780;28;20069;-89
2022/03/23 09:03:31;;;;;;;27.77;19.88;;;;;;;5.49;56.65;102348.59;4999068;28;20018;-89
2022/03/23 09:05:57;;;;;;;30.60;19.80;;;;;;;5.70;56.78;102353.78;5003695;28;20049;-88
2022/03/23 09:08:26;;;;;;;27.33;19.90;;;;;;;5.87;56.75;102345.69;5001678;28;20053;-88
2022/03/23 09:10:51;;;;;;;27.58;20.10;;;;;;;6.00;56.22;102347.03;5015637;28;20033;-88
2022/03/23 09:13:17;;;;;;;31.77;19.80;;;;;;;6.19;56.25;102350.31;4997609;28;20015;-88
2022/03/23 09:15:42;;;;;;;24.58;19.83;;;;;;;6.36;55.81;102354.47;4998606;28;20026;-89
2022/03/23 09:18:08;;;;;;;28.95;20.02;;;;;;;6.51;56.15;102351.47;4984955;28;20045;-89
2022/03/23 09:20:33;;;;;;;26.45;19.55;;;;;;;6.66;55.07;102355.47;5001388;28;20084;-89
2022/03/23 09:22:59;;;;;;;27.88;20.08;;;;;;;6.80;54.70;102346.34;4984734;28;20075;-89
2022/03/23 09:25:24;;;;;;;27.25;20.15;;;;;;;7.02;55.08;102354.94;4983512;28;20102;-88
2022/03/23 09:27:51;;;;;;;26.73;19.27;;;;;;;7.21;54.31;102352.91;4983973;28;20457;-89
2022/03/23 09:30:17;;;;;;;30.15;20.05;;;;;;;7.40;54.08;102354.38;4983979;28;20026;-88
2022/03/23 09:32:45;;;;;;;27.63;19.17;;;;;;;7.55;54.16;102355.69;4982810;28;20122;-89
2022/03/23 09:35:11;;;;;;;28.13;19.63;;;;;;;7.75;54.05;102356.31;5018095;28;20030;-89
2022/03/23 09:37:48;;;;;;;30.15;21.30;;;;;;;7.92;53.83;102353.25;4996174;28;20033;-89
2022/03/23 09:40:27;;;;;;;28.52;21.55;;;;;;;8.12;53.83;102361.72;5003029;28;20033;-89
2022/03/23 09:42:54;;;;;;;25.30;19.33;;;;;;;8.30;53.50;102353.44;4984166;28;20464;-89
2022/03/23 09:45:31;;;;;;;27.83;20.10;;;;;;;8.48;53.35;102352.19;4986139;28;20117;-89
2022/03/23 09:48:00;;;;;;;27.90;19.88;;;;;;;8.65;53.00;102349.13;5001226;28;20037;-89
2022/03/23 09:50:28;;;;;;;27.40;19.67;;;;;;;8.80;52.70;102341.63;4981155;28;20034;-89
2022/03/23 09:52:54;;;;;;;26.27;20.08;;;;;;;8.96;52.21;102334.09;4979376;28;20022;-88
2022/03/23 09:55:20;;;;;;;26.52;19.73;;;;;;;9.16;52.20;102338.97;4982953;28;20081;-90
2022/03/23 09:57:45;;;;;;;25.52;20.33;;;;;;;9.28;52.06;102335.72;5008612;28;20026;-89
2022/03/23 10:00:13;;;;;;;29.67;20.13;;;;;;;9.48;51.93;102334.44;4988785;28;20038;-90
2022/03/23 10:02:38;;;;;;;27.58;19.88;;;;;;;9.64;51.93;102340.06;4986182;28;20030;-90
2022/03/23 10:05:46;;;;;;;30.60;22.37;;;;;;;9.78;51.25;102332.44;4998781;28;20512;-89
2022/03/23 10:08:49;;;;;;;28.77;21.27;;;;;;;10.01;51.09;102335.53;4997116;28;20022;-90
2022/03/23 10:11:52;;;;;;;29.88;21.95;;;;;;;10.21;50.93;102327.13;4985176;28;20054;-91
2022/03/23 10:14:17;;;;;;;25.65;20.23;;;;;;;10.38;50.84;102324.78;5000042;28;20026;-92
2022/03/23 10:17:09;;;;;;;28.90;20.70;;;;;;;10.56;50.41;102328.66;5000055;28;20041;-91
2022/03/23 10:19:41;;;;;;;27.20;21.30;;;;;;;10.64;48.48;102324.41;5000394;28;20799;-91
2022/03/23 10:22:09;;;;;;;35.53;21.27;;;;;;;10.80;49.58;102322.03;4999685;28;20034;-91
2022/03/23 10:24:35;;;;;;;31.23;21.88;;;;;;;10.95;49.32;102321.41;5000962;28;20023;-91
2022/03/23 10:27:05;;;;;;;36.20;21.25;;;;;;;11.13;49.03;102312.88;4983944;28;20066;-91
2022/03/23 10:29:32;;;;;;;30.58;21.48;;;;;;;11.26;49.75;102305.13;4983479;28;20086;-91
2022/03/23 10:32:10;;;;;;;30.67;22.42;;;;;;;11.44;48.86;102308.91;4984150;28;20027;-91
2022/03/23 10:34:43;;;;;;;29.38;20.98;;;;;;;11.60;48.77;102310.00;4982941;28;20045;-91
2022/03/23 10:37:10;;;;;;;27.58;20.73;;;;;;;11.79;48.37;102311.09;5000152;28;20090;-90
2022/03/23 10:39:35;;;;;;;30.08;22.45;;;;;;;11.92;48.29;102306.84;4984272;28;20033;-90
2022/03/23 10:42:13;;;;;;;31.67;22.40;;;;;;;12.06;48.41;102299.09;4984337;28;20405;-89
2022/03/23 10:44:39;;;;;;;30.95;22.20;;;;;;;12.22;48.18;102296.59;5000177;28;20389;-91
2022/03/23 10:47:04;;;;;;;30.83;21.13;;;;;;;12.36;47.98;102302.03;5000846;28;20035;-91
2022/03/23 10:49:35;;;;;;;30.83;22.13;;;;;;;12.43;48.23;102290.63;4984197;28;20027;-92
2022/03/23 10:52:13;;;;;;;31.33;22.52;;;;;;;12.58;47.58;102293.41;4984700;28;20440;-89
2022/03/23 10:54:38;;;;;;;29.13;22.58;;;;;;;12.73;47.52;102290.91;4984969;28;20034;-92
2022/03/23 10:57:03;;;;;;;29.27;22.02;;;;;;;12.88;47.48;102280.41;4984772;28;20486;-91
2022/03/23 10:59:29;;;;;;;31.85;22.52;;;;;;;13.05;46.76;102290.22;4983868;28;20023;-93
2022/03/23 11:01:56;;;;;;;30.65;22.35;;;;;;;13.19;47.41;102282.38;4999734;28;20042;-91
2022/03/23 11:04:21;;;;;;;32.65;23.60;;;;;;;13.33;47.58;102285.97;5000119;28;20027;-91
2022/03/23 11:06:47;;;;;;;29.67;22.25;;;;;;;13.47;47.06;102285.16;4983843;28;20151;-91
2022/03/23 11:17:06;;;;;;;31.20;22.05;;;;;;;13.96;46.13;102272.97;5003560;28;20101;-92
2022/03/23 11:19:31;;;;;;;30.77;23.33;;;;;;;14.05;45.73;102266.81;4986926;28;20505;-92
2022/03/23 11:22:06;;;;;;;29.45;22.33;;;;;;;14.23;45.31;102261.53;4987034;28;20031;-91
2022/03/23 11:24:36;;;;;;;30.80;22.50;;;;;;;14.37;44.96;102263.31;5003772;28;20050;-92
2022/03/23 11:27:02;;;;;;;29.35;21.83;;;;;;;14.47;45.30;102262.44;4988235;28;20035;-93
2022/03/23 11:29:30;;;;;;;31.10;22.95;;;;;;;14.56;45.63;102264.19;4987850;28;20027;-91
2022/03/23 11:32:00;;;;;;;28.33;22.08;;;;;;;14.65;45.78;102262.44;4987525;28;20027;-91
2022/03/23 11:34:27;;;;;;;29.55;22.40;;;;;;;14.81;45.51;102263.34;4987153;28;20045;-91